sensor_id;sensor_type;location;lat;lon;timestamp;pressure;altitude;pressure_sealevel;temperature;humidity
54122;BME280;40029;58.708;50.190;2024-01-27T00:00:06;100413.13;;;-10.31;76.95
54122;BME280;40029;58.708;50.190;2024-01-27T00:02:56;100418.72;;;-10.38;77.26
54122;BME280;40029;58.708;50.190;2024-01-27T00:05:27;100418.09;;;-10.34;77.06
54122;BME280;40029;58.708;50.190;2024-01-27T00:07:59;100412.38;;;-10.29;76.96
54122;BME280;40029;58.708;50.190;2024-01-27T00:10:30;100416.94;;;-10.23;76.83
54122;BME280;40029;58.708;50.190;2024-01-27T00:13:01;100415.34;;;-10.21;77.04
54122;BME280;40029;58.708;50.190;2024-01-27T00:15:33;100419.03;;;-10.16;76.65
54122;BME280;40029;58.708;50.190;2024-01-27T00:18:04;100414.69;;;-10.17;76.63
54122;BME280;40029;58.708;50.190;2024-01-27T00:20:35;100415.56;;;-10.16;76.41
54122;BME280;40029;58.708;50.190;2024-01-27T00:23:07;100413.66;;;-10.20;76.52
54122;BME280;40029;58.708;50.190;2024-01-27T00:25:39;100406.94;;;-10.18;76.37
54122;BME280;40029;58.708;50.190;2024-01-27T00:28:10;100408.78;;;-10.16;76.37
54122;BME280;40029;58.708;50.190;2024-01-27T00:30:41;100405.88;;;-10.22;76.61
54122;BME280;40029;58.708;50.190;2024-01-27T00:33:13;100411.09;;;-10.20;76.52
54122;BME280;40029;58.708;50.190;2024-01-27T00:35:44;100415.63;;;-10.15;76.61
54122;BME280;40029;58.708;50.190;2024-01-27T00:38:15;100418.84;;;-10.19;76.45
54122;BME280;40029;58.708;50.190;2024-01-27T00:40:46;100418.84;;;-10.19;76.47
54122;BME280;40029;58.708;50.190;2024-01-27T00:43:17;100405.88;;;-10.22;76.51
54122;BME280;40029;58.708;50.190;2024-01-27T00:46:07;100406.34;;;-10.31;76.52
54122;BME280;40029;58.708;50.190;2024-01-27T00:48:38;100404.94;;;-10.24;77.05
54122;BME280;40029;58.708;50.190;2024-01-27T00:51:09;100416.13;;;-10.22;76.94
54122;BME280;40029;58.708;50.190;2024-01-27T00:53:40;100405.28;;;-10.18;76.94
54122;BME280;40029;58.708;50.190;2024-01-27T00:56:12;100411.81;;;-10.23;76.96
54122;BME280;40029;58.708;50.190;2024-01-27T00:58:43;100407.59;;;-10.22;77.27
54122;BME280;40029;58.708;50.190;2024-01-27T01:01:14;100409.91;;;-10.27;77.64
54122;BME280;40029;58.708;50.190;2024-01-27T01:04:04;100407.28;;;-10.29;77.28
54122;BME280;40029;58.708;50.190;2024-01-27T01:06:35;100403.81;;;-10.29;77.62
54122;BME280;40029;58.708;50.190;2024-01-27T01:09:09;100400.94;;;-10.19;77.05
54122;BME280;40029;58.708;50.190;2024-01-27T01:11:40;100405.28;;;-10.18;77.39
54122;BME280;40029;58.708;50.190;2024-01-27T01:14:30;100406.84;;;-10.20;77.16
54122;BME280;40029;58.708;50.190;2024-01-27T01:17:01;100401.69;;;-10.21;77.18
54122;BME280;40029;58.708;50.190;2024-01-27T01:19:33;100410.22;;;-10.21;77.26
54122;BME280;40029;58.708;50.190;2024-01-27T01:22:04;100409.56;;;-10.17;77.00
54122;BME280;40029;58.708;50.190;2024-01-27T01:24:54;100411.66;;;-10.10;76.95
54122;BME280;40029;58.708;50.190;2024-01-27T01:27:25;100411.66;;;-10.10;77.23
54122;BME280;40029;58.708;50.190;2024-01-27T01:29:57;100405.78;;;-10.07;77.11
54122;BME280;40029;58.708;50.190;2024-01-27T01:32:28;100412.28;;;-10.14;77.40
54122;BME280;40029;58.708;50.190;2024-01-27T01:34:59;100417.00;;;-10.05;77.05
54122;BME280;40029;58.708;50.190;2024-01-27T01:37:30;100425.63;;;-10.03;76.93
54122;BME280;40029;58.708;50.190;2024-01-27T01:40:02;100418.75;;;-10.04;76.84
54122;BME280;40029;58.708;50.190;2024-01-27T01:42:35;100423.94;;;-10.02;76.24
54122;BME280;40029;58.708;50.190;2024-01-27T01:45:07;100421.59;;;-9.98;76.73
54122;BME280;40029;58.708;50.190;2024-01-27T01:47:40;100412.91;;;-10.01;76.56
54122;BME280;40029;58.708;50.190;2024-01-27T01:50:30;100413.94;;;-9.98;76.76
54122;BME280;40029;58.708;50.190;2024-01-27T01:53:01;100415.72;;;-9.97;76.64
54122;BME280;40029;58.708;50.190;2024-01-27T01:55:34;100410.50;;;-9.98;76.91
54122;BME280;40029;58.708;50.190;2024-01-27T01:58:06;100410.66;;;-9.95;77.52
54122;BME280;40029;58.708;50.190;2024-01-27T02:00:37;100408.81;;;-9.98;77.55
54122;BME280;40029;58.708;50.190;2024-01-27T02:03:13;100414.03;;;-9.96;77.27
54122;BME280;40029;58.708;50.190;2024-01-27T02:05:44;100409.72;;;-9.97;77.10
54122;BME280;40029;58.708;50.190;2024-01-27T02:08:16;100410.50;;;-9.98;77.45
54122;BME280;40029;58.708;50.190;2024-01-27T02:10:47;100415.88;;;-9.94;77.28
54122;BME280;40029;58.708;50.190;2024-01-27T02:13:19;100412.66;;;-9.90;77.20
54122;BME280;40029;58.708;50.190;2024-01-27T02:15:53;100417.03;;;-9.87;77.27
54122;BME280;40029;58.708;50.190;2024-01-27T02:18:44;100422.97;;;-9.88;77.09
54122;BME280;40029;58.708;50.190;2024-01-27T02:21:15;100420.56;;;-9.85;77.23
54122;BME280;40029;58.708;50.190;2024-01-27T02:24:07;100425.03;;;-9.81;77.30
54122;BME280;40029;58.708;50.190;2024-01-27T02:26:38;100419.09;;;-9.80;77.48
54122;BME280;40029;58.708;50.190;2024-01-27T02:29:10;100425.03;;;-9.81;77.27
54122;BME280;40029;58.708;50.190;2024-01-27T02:31:41;100419.03;;;-9.81;77.25
54122;BME280;40029;58.708;50.190;2024-01-27T02:34:12;100413.19;;;-9.79;77.33
54122;BME280;40029;58.708;50.190;2024-01-27T02:36:43;100412.38;;;-9.78;77.22
54122;BME280;40029;58.708;50.190;2024-01-27T02:39:15;100410.78;;;-9.76;76.96
54122;BME280;40029;58.708;50.190;2024-01-27T02:41:46;100404.94;;;-9.73;76.85
54122;BME280;40029;58.708;50.190;2024-01-27T02:44:35;100406.75;;;-9.71;76.79
54122;BME280;40029;58.708;50.190;2024-01-27T02:47:06;100406.69;;;-9.72;77.16
54122;BME280;40029;58.708;50.190;2024-01-27T02:49:37;100409.31;;;-9.71;77.00
54122;BME280;40029;58.708;50.190;2024-01-27T02:52:09;100409.19;;;-9.74;76.91
54122;BME280;40029;58.708;50.190;2024-01-27T02:54:40;100407.63;;;-9.70;77.04
54122;BME280;40029;58.708;50.190;2024-01-27T02:57:11;100409.56;;;-9.66;77.07
54122;BME280;40029;58.708;50.190;2024-01-27T03:00:03;100407.00;;;-9.66;77.35
54122;BME280;40029;58.708;50.190;2024-01-27T03:02:36;100408.03;;;-9.62;76.95
54122;BME280;40029;58.708;50.190;2024-01-27T03:05:07;100408.03;;;-9.62;77.06
54122;BME280;40029;58.708;50.190;2024-01-27T03:07:39;100402.84;;;-9.64;77.21
54122;BME280;40029;58.708;50.190;2024-01-27T03:10:10;100399.47;;;-9.63;77.28
54122;BME280;40029;58.708;50.190;2024-01-27T03:12:41;100401.16;;;-9.63;77.45
54122;BME280;40029;58.708;50.190;2024-01-27T03:15:13;100404.44;;;-9.66;77.04
54122;BME280;40029;58.708;50.190;2024-01-27T03:17:44;100410.34;;;-9.67;77.39
54122;BME280;40029;58.708;50.190;2024-01-27T03:20:16;100408.75;;;-9.65;77.54
54122;BME280;40029;58.708;50.190;2024-01-27T03:22:47;100413.16;;;-9.62;77.54
54122;BME280;40029;58.708;50.190;2024-01-27T03:25:19;100416.28;;;-9.68;77.40
54122;BME280;40029;58.708;50.190;2024-01-27T03:27:50;100427.56;;;-9.64;77.52
54122;BME280;40029;58.708;50.190;2024-01-27T03:30:22;100413.16;;;-9.62;77.32
54122;BME280;40029;58.708;50.190;2024-01-27T03:32:53;100429.38;;;-9.62;77.60
54122;BME280;40029;58.708;50.190;2024-01-27T03:35:24;100432.81;;;-9.61;77.50
54122;BME280;40029;58.708;50.190;2024-01-27T03:37:55;100438.69;;;-9.64;77.05
54122;BME280;40029;58.708;50.190;2024-01-27T03:40:27;100440.56;;;-9.60;77.54
54122;BME280;40029;58.708;50.190;2024-01-27T03:42:58;100444.75;;;-9.62;77.27
54122;BME280;40029;58.708;50.190;2024-01-27T03:45:29;100451.47;;;-9.64;77.76
54122;BME280;40029;58.708;50.190;2024-01-27T03:48:01;100449.28;;;-9.56;77.15
54122;BME280;40029;58.708;50.190;2024-01-27T03:50:32;100449.28;;;-9.56;77.06
54122;BME280;40029;58.708;50.190;2024-01-27T03:53:03;100445.78;;;-9.58;77.05
54122;BME280;40029;58.708;50.190;2024-01-27T03:55:34;100448.09;;;-9.63;77.21
54122;BME280;40029;58.708;50.190;2024-01-27T03:58:06;100445.03;;;-9.56;77.68
54122;BME280;40029;58.708;50.190;2024-01-27T04:00:37;100438.19;;;-9.57;77.65
54122;BME280;40029;58.708;50.190;2024-01-27T04:03:27;100441.91;;;-9.50;77.50
54122;BME280;40029;58.708;50.190;2024-01-27T04:06:16;100439.50;;;-9.47;78.43
54122;BME280;40029;58.708;50.190;2024-01-27T04:08:48;100437.22;;;-9.41;78.15
54122;BME280;40029;58.708;50.190;2024-01-27T04:11:20;100436.53;;;-9.38;77.57
54122;BME280;40029;58.708;50.190;2024-01-27T04:14:10;100438.34;;;-9.36;77.90
54122;BME280;40029;58.708;50.190;2024-01-27T04:16:42;100446.19;;;-9.33;77.56
54122;BME280;40029;58.708;50.190;2024-01-27T04:19:13;100434.25;;;-9.32;77.09
54122;BME280;40029;58.708;50.190;2024-01-27T04:22:03;100448.00;;;-9.30;77.12
54122;BME280;40029;58.708;50.190;2024-01-27T04:24:34;100443.81;;;-9.28;76.94
54122;BME280;40029;58.708;50.190;2024-01-27T04:27:06;100444.66;;;-9.29;77.15
54122;BME280;40029;58.708;50.190;2024-01-27T04:29:37;100442.75;;;-9.33;77.47
54122;BME280;40029;58.708;50.190;2024-01-27T04:32:27;100439.59;;;-9.27;77.43
54122;BME280;40029;58.708;50.190;2024-01-27T04:35:16;100447.34;;;-9.26;76.96
54122;BME280;40029;58.708;50.190;2024-01-27T04:38:08;100456.44;;;-9.33;77.12
54122;BME280;40029;58.708;50.190;2024-01-27T04:40:40;100458.25;;;-9.30;77.58
54122;BME280;40029;58.708;50.190;2024-01-27T04:43:15;100455.47;;;-9.35;77.86
54122;BME280;40029;58.708;50.190;2024-01-27T04:45:47;100467.78;;;-9.27;77.50
54122;BME280;40029;58.708;50.190;2024-01-27T04:48:20;100466.97;;;-9.26;77.47
54122;BME280;40029;58.708;50.190;2024-01-27T04:50:52;100466.00;;;-9.28;77.42
54122;BME280;40029;58.708;50.190;2024-01-27T04:53:23;100467.78;;;-9.27;77.76
54122;BME280;40029;58.708;50.190;2024-01-27T04:55:54;100472.91;;;-9.27;77.08
54122;BME280;40029;58.708;50.190;2024-01-27T04:58:25;100468.50;;;-9.30;77.36
54122;BME280;40029;58.708;50.190;2024-01-27T05:00:56;100472.91;;;-9.27;77.76
54122;BME280;40029;58.708;50.190;2024-01-27T05:03:27;100467.63;;;-9.30;77.34
54122;BME280;40029;58.708;50.190;2024-01-27T05:05:59;100472.91;;;-9.27;77.35
54122;BME280;40029;58.708;50.190;2024-01-27T05:08:30;100474.81;;;-9.23;77.16
54122;BME280;40029;58.708;50.190;2024-01-27T05:11:01;100471.88;;;-9.31;77.61
54122;BME280;40029;58.708;50.190;2024-01-27T05:13:32;100469.81;;;-9.20;77.24
54122;BME280;40029;58.708;50.190;2024-01-27T05:16:04;100471.88;;;-9.13;77.21
54122;BME280;40029;58.708;50.190;2024-01-27T05:18:54;100476.13;;;-9.14;77.71
54122;BME280;40029;58.708;50.190;2024-01-27T05:21:25;100477.16;;;-9.10;77.82
54122;BME280;40029;58.708;50.190;2024-01-27T05:23:56;100484.09;;;-9.07;77.51
54122;BME280;40029;58.708;50.190;2024-01-27T05:26:27;100484.16;;;-9.06;77.01
54122;BME280;40029;58.708;50.190;2024-01-27T05:28:58;100480.31;;;-8.98;77.00
54122;BME280;40029;58.708;50.190;2024-01-27T05:31:30;100485.94;;;-8.87;76.61
54122;BME280;40029;58.708;50.190;2024-01-27T05:34:19;100487.69;;;-8.86;76.92
54122;BME280;40029;58.708;50.190;2024-01-27T05:36:51;100488.78;;;-8.81;77.36
54122;BME280;40029;58.708;50.190;2024-01-27T05:39:23;100489.97;;;-8.74;76.73
54122;BME280;40029;58.708;50.190;2024-01-27T05:41:54;100485.13;;;-8.86;76.89
54122;BME280;40029;58.708;50.190;2024-01-27T05:44:25;100476.13;;;-8.78;77.28
54122;BME280;40029;58.708;50.190;2024-01-27T05:46:57;100478.91;;;-8.73;76.29
54122;BME280;40029;58.708;50.190;2024-01-27T05:49:29;100473.75;;;-8.73;76.81
54122;BME280;40029;58.708;50.190;2024-01-27T05:52:00;100480.94;;;-8.66;76.94
54122;BME280;40029;58.708;50.190;2024-01-27T05:54:32;100478.56;;;-8.61;76.21
54122;BME280;40029;58.708;50.190;2024-01-27T05:57:04;100479.47;;;-8.61;76.24
54122;BME280;40029;58.708;50.190;2024-01-27T05:59:35;100482.31;;;-8.55;76.27
54122;BME280;40029;58.708;50.190;2024-01-27T06:02:06;100480.66;;;-8.72;75.77
54122;BME280;40029;58.708;50.190;2024-01-27T06:04:37;100484.28;;;-8.67;76.37
54122;BME280;40029;58.708;50.190;2024-01-27T06:07:09;100479.41;;;-8.80;75.77
54122;BME280;40029;58.708;50.190;2024-01-27T06:09:40;100486.22;;;-8.63;76.11
54122;BME280;40029;58.708;50.190;2024-01-27T06:12:11;100479.06;;;-8.50;75.67
54122;BME280;40029;58.708;50.190;2024-01-27T06:14:42;100481.22;;;-8.40;75.68
54122;BME280;40029;58.708;50.190;2024-01-27T06:17:14;100477.59;;;-8.26;74.74
54122;BME280;40029;58.708;50.190;2024-01-27T06:19:47;100482.03;;;-8.41;75.35
54122;BME280;40029;58.708;50.190;2024-01-27T06:22:18;100487.72;;;-8.29;75.17
54122;BME280;40029;58.708;50.190;2024-01-27T06:24:49;100487.19;;;-8.22;75.23
54122;BME280;40029;58.708;50.190;2024-01-27T06:27:20;100488.34;;;-8.15;74.88
54122;BME280;40029;58.708;50.190;2024-01-27T06:29:51;100488.53;;;-8.10;74.63
54122;BME280;40029;58.708;50.190;2024-01-27T06:32:23;100492.19;;;-8.05;74.95
54122;BME280;40029;58.708;50.190;2024-01-27T06:34:54;100478.84;;;-7.98;74.57
54122;BME280;40029;58.708;50.190;2024-01-27T06:37:25;100485.59;;;-8.00;74.95
54122;BME280;40029;58.708;50.190;2024-01-27T06:39:56;100496.09;;;-8.13;74.30
54122;BME280;40029;58.708;50.190;2024-01-27T06:42:28;100494.03;;;-8.22;74.61
54122;BME280;40029;58.708;50.190;2024-01-27T06:44:59;100497.38;;;-8.23;74.60
54122;BME280;40029;58.708;50.190;2024-01-27T06:47:31;100498.63;;;-8.15;74.49
54122;BME280;40029;58.708;50.190;2024-01-27T06:50:20;100501.44;;;-8.09;74.61
54122;BME280;40029;58.708;50.190;2024-01-27T06:53:10;100500.88;;;-8.21;74.20
54122;BME280;40029;58.708;50.190;2024-01-27T06:55:41;100513.94;;;-8.17;74.18
54122;BME280;40029;58.708;50.190;2024-01-27T06:58:12;100516.22;;;-8.23;74.35
54122;BME280;40029;58.708;50.190;2024-01-27T07:00:45;100511.34;;;-8.36;74.44
54122;BME280;40029;58.708;50.190;2024-01-27T07:03:16;100514.91;;;-8.32;74.50
54122;BME280;40029;58.708;50.190;2024-01-27T07:05:47;100512.31;;;-8.15;74.16
54122;BME280;40029;58.708;50.190;2024-01-27T07:08:18;100516.34;;;-8.20;74.44
54122;BME280;40029;58.708;50.190;2024-01-27T07:10:50;100521.88;;;-8.30;74.65
54122;BME280;40029;58.708;50.190;2024-01-27T07:13:41;100521.59;;;-8.36;74.61
54122;BME280;40029;58.708;50.190;2024-01-27T07:16:12;100516.81;;;-8.28;74.65
54122;BME280;40029;58.708;50.190;2024-01-27T07:18:43;100515.00;;;-8.11;74.37
54122;BME280;40029;58.708;50.190;2024-01-27T07:21:33;100519.19;;;-8.13;74.79
54122;BME280;40029;58.708;50.190;2024-01-27T07:24:04;100525.16;;;-7.95;74.15
54122;BME280;40029;58.708;50.190;2024-01-27T07:26:36;100512.09;;;-7.80;74.06
54122;BME280;40029;58.708;50.190;2024-01-27T07:29:07;100514.13;;;-7.53;74.23
54122;BME280;40029;58.708;50.190;2024-01-27T07:31:39;100510.09;;;-7.68;73.68
54122;BME280;40029;58.708;50.190;2024-01-27T07:34:10;100513.38;;;-7.51;73.69
54122;BME280;40029;58.708;50.190;2024-01-27T07:36:41;100515.06;;;-7.51;73.85
54122;BME280;40029;58.708;50.190;2024-01-27T07:39:13;100516.53;;;-7.37;73.69
54122;BME280;40029;58.708;50.190;2024-01-27T07:41:44;100513.59;;;-7.25;73.49
54122;BME280;40029;58.708;50.190;2024-01-27T07:44:18;100522.41;;;-7.40;73.66
54122;BME280;40029;58.708;50.190;2024-01-27T07:46:49;100528.31;;;-7.42;73.53
54122;BME280;40029;58.708;50.190;2024-01-27T07:49:20;100522.31;;;-7.43;73.31
54122;BME280;40029;58.708;50.190;2024-01-27T07:51:52;100524.94;;;-7.41;72.95
54122;BME280;40029;58.708;50.190;2024-01-27T07:54:23;100527.72;;;-7.56;73.25
54122;BME280;40029;58.708;50.190;2024-01-27T07:56:54;100523.31;;;-7.39;72.67
54122;BME280;40029;58.708;50.190;2024-01-27T07:59:26;100535.00;;;-7.46;72.93
54122;BME280;40029;58.708;50.190;2024-01-27T08:01:58;100529.78;;;-7.47;72.91
54122;BME280;40029;58.708;50.190;2024-01-27T08:04:29;100529.09;;;-7.43;72.64
54122;BME280;40029;58.708;50.190;2024-01-27T08:07:19;100533.34;;;-7.24;72.99
54122;BME280;40029;58.708;50.190;2024-01-27T08:09:50;100535.63;;;-7.11;72.81
54122;BME280;40029;58.708;50.190;2024-01-27T08:12:23;100532.34;;;-7.07;72.11
54122;BME280;40029;58.708;50.190;2024-01-27T08:14:54;100535.84;;;-7.05;72.20
54122;BME280;40029;58.708;50.190;2024-01-27T08:17:44;100538.25;;;-6.88;72.23
54122;BME280;40029;58.708;50.190;2024-01-27T08:20:16;100535.13;;;-7.02;71.68
54122;BME280;40029;58.708;50.190;2024-01-27T08:22:47;100535.13;;;-7.02;71.13
54122;BME280;40029;58.708;50.190;2024-01-27T08:25:22;100533.72;;;-7.15;72.09
54122;BME280;40029;58.708;50.190;2024-01-27T08:28:12;100534.53;;;-7.16;72.19
54122;BME280;40029;58.708;50.190;2024-01-27T08:30:43;100537.06;;;-6.96;72.24
54122;BME280;40029;58.708;50.190;2024-01-27T08:33:14;100540.81;;;-6.88;71.81
54122;BME280;40029;58.708;50.190;2024-01-27T08:35:48;100540.38;;;-6.78;71.79
54122;BME280;40029;58.708;50.190;2024-01-27T08:38:20;100547.63;;;-6.68;72.37
54122;BME280;40029;58.708;50.190;2024-01-27T08:40:51;100544.50;;;-6.61;71.65
54122;BME280;40029;58.708;50.190;2024-01-27T08:43:22;100549.25;;;-6.49;71.61
54122;BME280;40029;58.708;50.190;2024-01-27T08:45:53;100540.31;;;-6.36;71.11
54122;BME280;40029;58.708;50.190;2024-01-27T08:48:25;100550.13;;;-6.48;70.90
54122;BME280;40029;58.708;50.190;2024-01-27T08:50:57;100553.28;;;-6.33;70.43
54122;BME280;40029;58.708;50.190;2024-01-27T08:53:28;100556.75;;;-6.32;70.47
54122;BME280;40029;58.708;50.190;2024-01-27T08:56:01;100555.94;;;-6.31;70.63
54122;BME280;40029;58.708;50.190;2024-01-27T08:58:32;100553.88;;;-6.40;70.89
54122;BME280;40029;58.708;50.190;2024-01-27T09:01:03;100557.41;;;-6.38;71.19
54122;BME280;40029;58.708;50.190;2024-01-27T09:03:36;100555.84;;;-6.33;70.88
54122;BME280;40029;58.708;50.190;2024-01-27T09:06:07;100564.94;;;-6.43;70.50
54122;BME280;40029;58.708;50.190;2024-01-27T09:08:39;100563.66;;;-6.31;70.53
54122;BME280;40029;58.708;50.190;2024-01-27T09:11:28;100559.00;;;-6.40;70.65
54122;BME280;40029;58.708;50.190;2024-01-27T09:14:01;100563.34;;;-6.39;69.97
54122;BME280;40029;58.708;50.190;2024-01-27T09:16:51;100561.22;;;-6.49;71.01
54122;BME280;40029;58.708;50.190;2024-01-27T09:19:23;100564.78;;;-6.25;70.87
54122;BME280;40029;58.708;50.190;2024-01-27T09:21:54;100569.41;;;-6.16;70.82
54122;BME280;40029;58.708;50.190;2024-01-27T09:24:26;100568.63;;;-6.13;70.64
54122;BME280;40029;58.708;50.190;2024-01-27T09:27:15;100567.22;;;-6.05;70.34
54122;BME280;40029;58.708;50.190;2024-01-27T09:29:47;100569.78;;;-6.05;69.76
54122;BME280;40029;58.708;50.190;2024-01-27T09:32:19;100569.09;;;-6.01;70.10
54122;BME280;40029;58.708;50.190;2024-01-27T09:34:50;100571.88;;;-5.95;70.46
54122;BME280;40029;58.708;50.190;2024-01-27T09:37:24;100574.72;;;-5.87;69.74
54122;BME280;40029;58.708;50.190;2024-01-27T09:39:56;100574.31;;;-5.75;70.23
54122;BME280;40029;58.708;50.190;2024-01-27T09:42:27;100573.16;;;-5.84;71.12
54122;BME280;40029;58.708;50.190;2024-01-27T09:45:01;100573.59;;;-5.71;70.07
54122;BME280;40029;58.708;50.190;2024-01-27T09:47:36;100573.81;;;-5.65;70.29
54122;BME280;40029;58.708;50.190;2024-01-27T09:50:10;100568.88;;;-5.59;70.37
54122;BME280;40029;58.708;50.190;2024-01-27T09:52:41;100566.47;;;-5.54;70.46
54122;BME280;40029;58.708;50.190;2024-01-27T09:55:13;100575.69;;;-5.61;70.24
54122;BME280;40029;58.708;50.190;2024-01-27T09:57:45;100574.28;;;-5.53;70.57
54122;BME280;40029;58.708;50.190;2024-01-27T10:00:18;100576.72;;;-5.56;70.63
54122;BME280;40029;58.708;50.190;2024-01-27T10:02:50;100575.78;;;-5.58;70.05
54122;BME280;40029;58.708;50.190;2024-01-27T10:05:41;100583.06;;;-5.70;69.95
54122;BME280;40029;58.708;50.190;2024-01-27T10:08:13;100576.97;;;-5.72;70.33
54122;BME280;40029;58.708;50.190;2024-01-27T10:10:44;100570.75;;;-5.79;70.50
54122;BME280;40029;58.708;50.190;2024-01-27T10:13:16;100584.25;;;-5.85;70.85
54122;BME280;40029;58.708;50.190;2024-01-27T10:18:34;100577.69;;;-6.00;71.16
54122;BME280;40029;58.708;50.190;2024-01-27T10:21:15;100581.56;;;-6.12;71.24
54122;BME280;40029;58.708;50.190;2024-01-27T10:23:47;100583.38;;;-6.09;72.47
54122;BME280;40029;58.708;50.190;2024-01-27T10:26:18;100575.88;;;-6.03;71.91
54122;BME280;40029;58.708;50.190;2024-01-27T10:28:56;100580.94;;;-6.06;71.75
54122;BME280;40029;58.708;50.190;2024-01-27T10:31:28;100585.00;;;-6.11;72.40
54122;BME280;40029;58.708;50.190;2024-01-27T10:34:00;100588.72;;;-6.05;72.11
54122;BME280;40029;58.708;50.190;2024-01-27T10:36:42;100588.53;;;-6.09;72.37
54122;BME280;40029;58.708;50.190;2024-01-27T10:39:22;100602.44;;;-6.04;72.35
54122;BME280;40029;58.708;50.190;2024-01-27T10:41:54;100599.88;;;-6.04;72.46
54122;BME280;40029;58.708;50.190;2024-01-27T10:44:44;100610.03;;;-6.07;73.28
54122;BME280;40029;58.708;50.190;2024-01-27T10:47:17;100605.75;;;-6.08;73.29
54122;BME280;40029;58.708;50.190;2024-01-27T10:49:51;100608.06;;;-6.14;72.62
54122;BME280;40029;58.708;50.190;2024-01-27T10:52:33;100607.19;;;-6.15;72.66
54122;BME280;40029;58.708;50.190;2024-01-27T10:55:24;100614.03;;;-6.15;72.69
54122;BME280;40029;58.708;50.190;2024-01-27T10:57:56;100615.63;;;-6.19;72.62
54122;BME280;40029;58.708;50.190;2024-01-27T11:00:33;100616.25;;;-6.25;73.76
54122;BME280;40029;58.708;50.190;2024-01-27T11:03:06;100623.13;;;-6.24;73.48
54122;BME280;40029;58.708;50.190;2024-01-27T11:05:39;100621.50;;;-6.22;72.89
54122;BME280;40029;58.708;50.190;2024-01-27T11:08:12;100623.28;;;-6.21;72.66
54122;BME280;40029;58.708;50.190;2024-01-27T11:10:44;100628.28;;;-6.24;73.25
54122;BME280;40029;58.708;50.190;2024-01-27T11:13:16;100639.59;;;-6.20;72.53
54122;BME280;40029;58.708;50.190;2024-01-27T11:16:12;100633.28;;;-6.28;73.20
54122;BME280;40029;58.708;50.190;2024-01-27T11:18:48;100643.38;;;-6.33;73.77
54122;BME280;40029;58.708;50.190;2024-01-27T11:21:37;100641.72;;;-6.31;73.70
54122;BME280;40029;58.708;50.190;2024-01-27T11:24:27;100645.28;;;-6.29;73.38
54122;BME280;40029;58.708;50.190;2024-01-27T11:27:03;100643.50;;;-6.30;73.40
54122;BME280;40029;58.708;50.190;2024-01-27T11:29:35;100640.84;;;-6.31;73.87
54122;BME280;40029;58.708;50.190;2024-01-27T11:32:07;100643.69;;;-6.25;73.42
54122;BME280;40029;58.708;50.190;2024-01-27T11:34:47;100651.44;;;-6.24;74.23
54122;BME280;40029;58.708;50.190;2024-01-27T11:37:19;100650.78;;;-6.19;74.20
54122;BME280;40029;58.708;50.190;2024-01-27T11:40:04;100658.44;;;-6.21;73.77
54122;BME280;40029;58.708;50.190;2024-01-27T11:42:37;100657.53;;;-6.22;74.00
54122;BME280;40029;58.708;50.190;2024-01-27T11:45:09;100657.53;;;-6.22;73.90
54122;BME280;40029;58.708;50.190;2024-01-27T11:47:41;100660.94;;;-6.23;74.05
54122;BME280;40029;58.708;50.190;2024-01-27T11:50:12;100660.13;;;-6.22;73.87
54122;BME280;40029;58.708;50.190;2024-01-27T11:52:44;100666.88;;;-6.25;74.30
54122;BME280;40029;58.708;50.190;2024-01-27T11:55:15;100668.81;;;-6.19;74.67
54122;BME280;40029;58.708;50.190;2024-01-27T11:57:46;100661.09;;;-6.19;74.11
54122;BME280;40029;58.708;50.190;2024-01-27T12:00:18;100670.19;;;-6.28;74.12
54122;BME280;40029;58.708;50.190;2024-01-27T12:02:50;100670.94;;;-6.30;74.91
54122;BME280;40029;58.708;50.190;2024-01-27T12:05:22;100673.59;;;-6.29;74.39
54122;BME280;40029;58.708;50.190;2024-01-27T12:08:12;100672.63;;;-6.31;74.62
54122;BME280;40029;58.708;50.190;2024-01-27T12:10:44;100671.75;;;-6.31;74.27
54122;BME280;40029;58.708;50.190;2024-01-27T12:13:15;100672.56;;;-6.32;74.61
54122;BME280;40029;58.708;50.190;2024-01-27T12:15:47;100676.75;;;-6.34;74.43
54122;BME280;40029;58.708;50.190;2024-01-27T12:18:19;100677.66;;;-6.34;75.20
54122;BME280;40029;58.708;50.190;2024-01-27T12:20:55;100685.25;;;-6.37;74.81
54122;BME280;40029;58.708;50.190;2024-01-27T12:23:27;100681.91;;;-6.34;74.92
54122;BME280;40029;58.708;50.190;2024-01-27T12:25:58;100687.56;;;-6.43;75.56
54122;BME280;40029;58.708;50.190;2024-01-27T12:28:29;100691.81;;;-6.44;75.13
54122;BME280;40029;58.708;50.190;2024-01-27T12:31:00;100681.53;;;-6.44;75.15
54122;BME280;40029;58.708;50.190;2024-01-27T12:33:31;100690.72;;;-6.50;75.38
54122;BME280;40029;58.708;50.190;2024-01-27T12:36:07;100688.81;;;-6.54;75.41
54122;BME280;40029;58.708;50.190;2024-01-27T12:38:38;100685.31;;;-6.56;75.58
54122;BME280;40029;58.708;50.190;2024-01-27T12:41:09;100687.06;;;-6.55;75.76
54122;BME280;40029;58.708;50.190;2024-01-27T12:43:40;100683.69;;;-6.54;75.62
54122;BME280;40029;58.708;50.190;2024-01-27T12:46:12;100680.16;;;-6.56;75.95
54122;BME280;40029;58.708;50.190;2024-01-27T12:48:45;100675.75;;;-6.59;75.86
54122;BME280;40029;58.708;50.190;2024-01-27T12:51:16;100683.53;;;-6.57;75.31
54122;BME280;40029;58.708;50.190;2024-01-27T12:53:47;100681.53;;;-6.65;75.91
54122;BME280;40029;58.708;50.190;2024-01-27T12:56:22;100690.94;;;-6.65;76.07
54122;BME280;40029;58.708;50.190;2024-01-27T12:58:54;100696.09;;;-6.65;76.47
54122;BME280;40029;58.708;50.190;2024-01-27T13:01:25;100698.59;;;-6.67;76.09
54122;BME280;40029;58.708;50.190;2024-01-27T13:03:56;100695.22;;;-6.66;76.15
54122;BME280;40029;58.708;50.190;2024-01-27T13:06:46;100694.13;;;-6.71;76.44
54122;BME280;40029;58.708;50.190;2024-01-27T13:09:17;100700.09;;;-6.72;75.92
54122;BME280;40029;58.708;50.190;2024-01-27T13:11:49;100698.53;;;-6.68;76.04
54122;BME280;40029;58.708;50.190;2024-01-27T13:14:20;100706.25;;;-6.68;76.08